sensor_id;sensor_type;location;lat;lon;timestamp;pressure;altitude;pressure_sealevel;temperature;humidity
63779;BME280;49923;55.970;37.516;2022-07-17T00:00:41;99588.81;;;16.12;76.31
63779;BME280;49923;55.970;37.516;2022-07-17T00:03:12;99590.41;;;16.15;75.84
63779;BME280;49923;55.970;37.516;2022-07-17T00:05:38;99590.53;;;16.13;76.35
63779;BME280;49923;55.970;37.516;2022-07-17T00:08:07;99590.22;;;16.04;76.60
63779;BME280;49923;55.970;37.516;2022-07-17T00:10:35;99593.91;;;16.01;76.75
63779;BME280;49923;55.970;37.516;2022-07-17T00:13:01;99591.38;;;16.00;77.22
63779;BME280;49923;55.970;37.516;2022-07-17T00:15:27;99589.94;;;16.08;76.74
63779;BME280;49923;55.970;37.516;2022-07-17T00:17:53;99588.06;;;16.10;76.43
63779;BME280;49923;55.970;37.516;2022-07-17T00:20:20;99595.00;;;16.11;76.52
63779;BME280;49923;55.970;37.516;2022-07-17T00:22:46;99592.69;;;16.07;76.49
63779;BME280;49923;55.970;37.516;2022-07-17T00:25:13;99591.47;;;16.12;75.88
63779;BME280;49923;55.970;37.516;2022-07-17T00:27:39;99590.59;;;16.12;76.19
63779;BME280;49923;55.970;37.516;2022-07-17T00:30:05;99592.56;;;16.08;76.40
63779;BME280;49923;55.970;37.516;2022-07-17T00:32:33;99591.53;;;16.11;76.39
63779;BME280;49923;55.970;37.516;2022-07-17T00:35:00;99588.38;;;16.06;76.66
63779;BME280;49923;55.970;37.516;2022-07-17T00:37:26;99588.44;;;16.04;76.99
63779;BME280;49923;55.970;37.516;2022-07-17T00:39:51;99584.13;;;16.17;76.19
63779;BME280;49923;55.970;37.516;2022-07-17T00:42:18;99590.69;;;16.10;75.87
63779;BME280;49923;55.970;37.516;2022-07-17T00:44:44;99587.22;;;16.10;75.73
63779;BME280;49923;55.970;37.516;2022-07-17T00:47:19;99587.97;;;15.97;76.95
63779;BME280;49923;55.970;37.516;2022-07-17T00:49:46;99582.56;;;15.86;77.54
63779;BME280;49923;55.970;37.516;2022-07-17T00:52:14;99585.47;;;15.96;77.02
63779;BME280;49923;55.970;37.516;2022-07-17T00:54:42;99585.56;;;15.94;77.49
63779;BME280;49923;55.970;37.516;2022-07-17T00:57:11;99582.19;;;15.92;77.40
63779;BME280;49923;55.970;37.516;2022-07-17T00:59:37;99584.63;;;15.95;77.25
63779;BME280;49923;55.970;37.516;2022-07-17T01:02:06;99586.13;;;16.00;76.73
63779;BME280;49923;55.970;37.516;2022-07-17T01:04:36;99577.94;;;16.04;76.16
63779;BME280;49923;55.970;37.516;2022-07-17T01:07:04;99580.75;;;15.73;77.30
63779;BME280;49923;55.970;37.516;2022-07-17T01:09:31;99579.56;;;15.78;77.02
63779;BME280;49923;55.970;37.516;2022-07-17T01:11:57;99584.63;;;15.81;76.85
63779;BME280;49923;55.970;37.516;2022-07-17T01:14:25;99584.06;;;15.76;77.20
63779;BME280;49923;55.970;37.516;2022-07-17T01:16:52;99588.38;;;15.77;77.01
63779;BME280;49923;55.970;37.516;2022-07-17T01:19:20;99586.50;;;15.79;76.68
63779;BME280;49923;55.970;37.516;2022-07-17T01:21:48;99594.19;;;15.82;77.02
63779;BME280;49923;55.970;37.516;2022-07-17T01:24:15;99598.22;;;15.74;78.01
63779;BME280;49923;55.970;37.516;2022-07-17T01:26:46;99596.34;;;15.76;78.19
63779;BME280;49923;55.970;37.516;2022-07-17T01:29:14;99604.41;;;16.01;76.18
63779;BME280;49923;55.970;37.516;2022-07-17T01:31:40;99601.13;;;16.12;75.26
63779;BME280;49923;55.970;37.516;2022-07-17T01:34:09;99607.78;;;16.03;75.32
63779;BME280;49923;55.970;37.516;2022-07-17T01:36:36;99609.38;;;16.06;74.96
63779;BME280;49923;55.970;37.516;2022-07-17T01:39:03;99610.03;;;16.09;74.67
63779;BME280;49923;55.970;37.516;2022-07-17T01:41:29;99611.16;;;16.05;75.07
63779;BME280;49923;55.970;37.516;2022-07-17T01:43:56;99612.94;;;16.05;75.18
63779;BME280;49923;55.970;37.516;2022-07-17T01:46:22;99613.69;;;15.92;75.68
63779;BME280;49923;55.970;37.516;2022-07-17T01:48:48;99615.94;;;15.98;76.52
63779;BME280;49923;55.970;37.516;2022-07-17T01:51:14;99617.72;;;15.98;76.39
63779;BME280;49923;55.970;37.516;2022-07-17T01:53:40;99617.63;;;16.00;76.74
63779;BME280;49923;55.970;37.516;2022-07-17T01:56:06;99615.19;;;15.96;76.97
63779;BME280;49923;55.970;37.516;2022-07-17T01:58:33;99612.66;;;16.09;76.54
63779;BME280;49923;55.970;37.516;2022-07-17T02:00:59;99611.81;;;16.09;76.68
63779;BME280;49923;55.970;37.516;2022-07-17T02:03:25;99604.59;;;16.12;76.50
63779;BME280;49923;55.970;37.516;2022-07-17T02:05:51;99612.00;;;16.06;76.87
63779;BME280;49923;55.970;37.516;2022-07-17T02:08:17;99619.13;;;16.04;77.25
63779;BME280;49923;55.970;37.516;2022-07-17T02:10:43;99615.28;;;16.09;76.84
63779;BME280;49923;55.970;37.516;2022-07-17T02:13:09;99612.94;;;16.05;77.22
63779;BME280;49923;55.970;37.516;2022-07-17T02:15:35;99616.50;;;16.04;77.67
63779;BME280;49923;55.970;37.516;2022-07-17T02:18:00;99609.84;;;16.12;76.93
63779;BME280;49923;55.970;37.516;2022-07-17T02:20:26;99610.56;;;16.14;76.31
63779;BME280;49923;55.970;37.516;2022-07-17T02:22:53;99611.25;;;16.18;76.53
63779;BME280;49923;55.970;37.516;2022-07-17T02:25:19;99608.63;;;16.18;76.63
63779;BME280;49923;55.970;37.516;2022-07-17T02:27:44;99605.78;;;16.21;76.98
63779;BME280;49923;55.970;37.516;2022-07-17T02:30:13;99607.09;;;16.28;76.66
63779;BME280;49923;55.970;37.516;2022-07-17T02:32:41;99597.72;;;16.24;76.99
63779;BME280;49923;55.970;37.516;2022-07-17T02:35:08;99608.91;;;16.13;77.08
63779;BME280;49923;55.970;37.516;2022-07-17T02:37:35;99600.53;;;16.21;76.53
63779;BME280;49923;55.970;37.516;2022-07-17T02:40:01;99596.78;;;16.25;76.77
63779;BME280;49923;55.970;37.516;2022-07-17T02:42:28;99584.66;;;16.36;74.96
63779;BME280;49923;55.970;37.516;2022-07-17T02:44:55;99595.66;;;16.29;76.28
63779;BME280;49923;55.970;37.516;2022-07-17T02:47:30;99594.16;;;16.25;76.50
63779;BME280;49923;55.970;37.516;2022-07-17T02:49:56;99595.16;;;16.36;76.12
63779;BME280;49923;55.970;37.516;2022-07-17T02:52:23;99600.66;;;16.46;75.49
63779;BME280;49923;55.970;37.516;2022-07-17T02:54:49;99603.84;;;16.51;75.82
63779;BME280;49923;55.970;37.516;2022-07-17T02:57:15;99595.56;;;16.57;75.09
63779;BME280;49923;55.970;37.516;2022-07-17T02:59:41;99599.88;;;16.58;75.01
63779;BME280;49923;55.970;37.516;2022-07-17T03:02:07;99598.03;;;16.46;75.95
63779;BME280;49923;55.970;37.516;2022-07-17T03:04:34;99599.53;;;16.50;75.73
63779;BME280;49923;55.970;37.516;2022-07-17T03:07:00;99600.69;;;16.60;75.55
63779;BME280;49923;55.970;37.516;2022-07-17T03:09:26;99603.00;;;16.65;75.32
63779;BME280;49923;55.970;37.516;2022-07-17T03:11:52;99610.50;;;16.57;76.27
63779;BME280;49923;55.970;37.516;2022-07-17T03:14:18;99606.25;;;16.68;76.37
63779;BME280;49923;55.970;37.516;2022-07-17T03:16:44;99614.44;;;16.78;75.64
63779;BME280;49923;55.970;37.516;2022-07-17T03:19:09;99616.09;;;16.79;75.95
63779;BME280;49923;55.970;37.516;2022-07-17T03:21:35;99609.16;;;16.78;76.32
63779;BME280;49923;55.970;37.516;2022-07-17T03:24:01;99612.34;;;16.83;76.14
63779;BME280;49923;55.970;37.516;2022-07-17T03:26:27;99611.63;;;16.94;75.31
63779;BME280;49923;55.970;37.516;2022-07-17T03:28:53;99612.66;;;16.91;75.35
63779;BME280;49923;55.970;37.516;2022-07-17T03:31:19;99613.94;;;16.98;75.09
63779;BME280;49923;55.970;37.516;2022-07-17T03:33:45;99616.41;;;17.01;75.06
63779;BME280;49923;55.970;37.516;2022-07-17T03:36:11;99615.88;;;17.09;74.98
63779;BME280;49923;55.970;37.516;2022-07-17T03:38:37;99617.81;;;17.19;73.96
63779;BME280;49923;55.970;37.516;2022-07-17T03:41:03;99616.13;;;17.18;74.24
63779;BME280;49923;55.970;37.516;2022-07-17T03:43:29;99614.13;;;17.22;74.74
63779;BME280;49923;55.970;37.516;2022-07-17T03:45:54;99619.06;;;17.27;74.78
63779;BME280;49923;55.970;37.516;2022-07-17T03:48:20;99610.22;;;17.28;74.82
63779;BME280;49923;55.970;37.516;2022-07-17T03:50:46;99614.97;;;17.35;74.71
63779;BME280;49923;55.970;37.516;2022-07-17T03:53:12;99616.34;;;17.41;74.01
63779;BME280;49923;55.970;37.516;2022-07-17T03:55:38;99626.66;;;17.44;73.76
63779;BME280;49923;55.970;37.516;2022-07-17T03:58:04;99629.88;;;17.62;72.22
63779;BME280;49923;55.970;37.516;2022-07-17T04:00:30;99631.31;;;17.53;72.25
63779;BME280;49923;55.970;37.516;2022-07-17T04:02:56;99636.78;;;17.37;73.09
63779;BME280;49923;55.970;37.516;2022-07-17T04:05:22;99641.09;;;17.26;73.77
63779;BME280;49923;55.970;37.516;2022-07-17T04:07:48;99648.72;;;17.16;74.01
63779;BME280;49923;55.970;37.516;2022-07-17T04:10:14;99654.06;;;17.02;74.60
63779;BME280;49923;55.970;37.516;2022-07-17T04:12:41;99656.69;;;16.75;74.24
63779;BME280;49923;55.970;37.516;2022-07-17T04:15:08;99665.47;;;16.19;76.61
63779;BME280;49923;55.970;37.516;2022-07-17T04:17:35;99658.34;;;15.92;77.63
63779;BME280;49923;55.970;37.516;2022-07-17T04:20:02;99660.84;;;15.80;77.75
63779;BME280;49923;55.970;37.516;2022-07-17T04:22:28;99652.66;;;15.56;77.33
63779;BME280;49923;55.970;37.516;2022-07-17T04:24:53;99654.06;;;15.62;78.30
63779;BME280;49923;55.970;37.516;2022-07-17T04:27:19;99650.38;;;15.50;77.37
63779;BME280;49923;55.970;37.516;2022-07-17T04:29:45;99658.88;;;15.55;76.93
63779;BME280;49923;55.970;37.516;2022-07-17T04:32:11;99651.16;;;15.52;76.60
63779;BME280;49923;55.970;37.516;2022-07-17T04:34:37;99652.78;;;15.39;76.71
63779;BME280;49923;55.970;37.516;2022-07-17T04:37:03;99650.22;;;15.23;78.04
63779;BME280;49923;55.970;37.516;2022-07-17T04:39:30;99651.91;;;15.24;77.67
63779;BME280;49923;55.970;37.516;2022-07-17T04:41:56;99647.72;;;15.36;78.58
63779;BME280;49923;55.970;37.516;2022-07-17T04:44:23;99643.50;;;15.33;80.50
63779;BME280;49923;55.970;37.516;2022-07-17T04:46:48;99629.53;;;15.33;81.70
63779;BME280;49923;55.970;37.516;2022-07-17T04:49:14;99625.47;;;15.13;79.97
63779;BME280;49923;55.970;37.516;2022-07-17T04:51:41;99618.81;;;14.92;80.05
63779;BME280;49923;55.970;37.516;2022-07-17T04:54:07;99608.94;;;15.11;80.22
63779;BME280;49923;55.970;37.516;2022-07-17T04:56:33;99610.72;;;15.10;81.19
63779;BME280;49923;55.970;37.516;2022-07-17T04:58:59;99610.38;;;15.16;80.63
63779;BME280;49923;55.970;37.516;2022-07-17T05:01:24;99622.78;;;15.29;78.56
63779;BME280;49923;55.970;37.516;2022-07-17T05:03:50;99617.53;;;15.59;78.02
63779;BME280;49923;55.970;37.516;2022-07-17T05:06:16;99608.50;;;15.48;76.88
63779;BME280;49923;55.970;37.516;2022-07-17T05:08:42;99618.66;;;15.54;77.04
63779;BME280;49923;55.970;37.516;2022-07-17T05:11:08;99612.00;;;15.63;76.85
63779;BME280;49923;55.970;37.516;2022-07-17T05:13:34;99620.16;;;15.59;75.76
63779;BME280;49923;55.970;37.516;2022-07-17T05:16:00;99621.00;;;15.43;76.19
63779;BME280;49923;55.970;37.516;2022-07-17T05:18:26;99615.66;;;15.75;77.20
63779;BME280;49923;55.970;37.516;2022-07-17T05:20:52;99626.91;;;15.77;78.08
63779;BME280;49923;55.970;37.516;2022-07-17T05:23:18;99623.25;;;16.22;76.27
63779;BME280;49923;55.970;37.516;2022-07-17T05:25:44;99630.81;;;16.26;75.95
63779;BME280;49923;55.970;37.516;2022-07-17T05:28:10;99621.94;;;16.56;76.30
63779;BME280;49923;55.970;37.516;2022-07-17T05:30:36;99624.03;;;16.65;75.77
63779;BME280;49923;55.970;37.516;2022-07-17T05:33:02;99624.88;;;16.65;74.46
63779;BME280;49923;55.970;37.516;2022-07-17T05:35:28;99618.13;;;16.88;74.69
63779;BME280;49923;55.970;37.516;2022-07-17T05:37:54;99622.19;;;16.79;74.07
63779;BME280;49923;55.970;37.516;2022-07-17T05:40:20;99628.53;;;16.63;71.98
63779;BME280;49923;55.970;37.516;2022-07-17T05:42:46;99638.78;;;16.94;72.35
63779;BME280;49923;55.970;37.516;2022-07-17T05:45:12;99630.66;;;17.24;71.89
63779;BME280;49923;55.970;37.516;2022-07-17T05:47:38;99633.28;;;17.24;71.70
63779;BME280;49923;55.970;37.516;2022-07-17T05:50:04;99632.66;;;17.33;72.39
63779;BME280;49923;55.970;37.516;2022-07-17T05:52:30;99631.69;;;17.61;72.62
63779;BME280;49923;55.970;37.516;2022-07-17T05:54:56;99629.88;;;17.74;71.52
63779;BME280;49923;55.970;37.516;2022-07-17T05:57:22;99625.44;;;18.13;70.24
63779;BME280;49923;55.970;37.516;2022-07-17T05:59:47;99624.69;;;17.47;70.32
63779;BME280;49923;55.970;37.516;2022-07-17T06:02:13;99623.94;;;17.45;70.37
63779;BME280;49923;55.970;37.516;2022-07-17T06:04:39;99614.53;;;17.16;69.43
63779;BME280;49923;55.970;37.516;2022-07-17T06:07:05;99611.00;;;17.42;69.49
63779;BME280;49923;55.970;37.516;2022-07-17T06:09:31;99613.00;;;16.99;71.03
63779;BME280;49923;55.970;37.516;2022-07-17T06:11:57;99615.81;;;17.23;70.12
63779;BME280;49923;55.970;37.516;2022-07-17T06:14:23;99608.13;;;17.33;68.19
63779;BME280;49923;55.970;37.516;2022-07-17T06:16:50;99605.00;;;17.53;68.71
63779;BME280;49923;55.970;37.516;2022-07-17T06:19:16;99605.63;;;17.31;66.63
63779;BME280;49923;55.970;37.516;2022-07-17T06:21:43;99611.44;;;17.74;69.69
63779;BME280;49923;55.970;37.516;2022-07-17T06:24:09;99609.25;;;17.81;64.61
63779;BME280;49923;55.970;37.516;2022-07-17T06:26:35;99605.94;;;18.15;66.32
63779;BME280;49923;55.970;37.516;2022-07-17T06:29:01;99602.78;;;18.10;65.94
63779;BME280;49923;55.970;37.516;2022-07-17T06:31:27;99606.16;;;17.99;64.26
63779;BME280;49923;55.970;37.516;2022-07-17T06:33:53;99605.97;;;17.90;63.40
63779;BME280;49923;55.970;37.516;2022-07-17T06:36:19;99605.66;;;17.94;61.27
63779;BME280;49923;55.970;37.516;2022-07-17T06:38:45;99601.13;;;17.96;63.38
63779;BME280;49923;55.970;37.516;2022-07-17T06:41:11;99604.53;;;18.22;64.59
63779;BME280;49923;55.970;37.516;2022-07-17T06:43:37;99615.25;;;18.45;65.13
63779;BME280;49923;55.970;37.516;2022-07-17T06:46:03;99600.28;;;17.96;62.60
63779;BME280;49923;55.970;37.516;2022-07-17T06:48:29;99598.78;;;18.05;62.39
63779;BME280;49923;55.970;37.516;2022-07-17T06:50:55;99598.50;;;18.33;63.70
63779;BME280;49923;55.970;37.516;2022-07-17T06:53:21;99595.78;;;18.22;62.97
63779;BME280;49923;55.970;37.516;2022-07-17T06:55:47;99600.97;;;18.23;62.73
63779;BME280;49923;55.970;37.516;2022-07-17T06:58:13;99599.31;;;17.97;59.03
63779;BME280;49923;55.970;37.516;2022-07-17T07:00:39;99598.16;;;18.01;58.74
63779;BME280;49923;55.970;37.516;2022-07-17T07:03:06;99593.72;;;18.14;60.03
63779;BME280;49923;55.970;37.516;2022-07-17T07:05:32;99585.63;;;18.41;60.82
63779;BME280;49923;55.970;37.516;2022-07-17T07:07:58;99591.34;;;18.71;61.76
63779;BME280;49923;55.970;37.516;2022-07-17T07:10:24;99590.72;;;18.68;60.55
63779;BME280;49923;55.970;37.516;2022-07-17T07:12:50;99595.03;;;18.69;59.22
63779;BME280;49923;55.970;37.516;2022-07-17T07:15:16;99594.09;;;18.70;60.09
63779;BME280;49923;55.970;37.516;2022-07-17T07:17:42;99595.88;;;18.69;59.91
63779;BME280;49923;55.970;37.516;2022-07-17T07:20:09;99594.13;;;19.05;60.12
63779;BME280;49923;55.970;37.516;2022-07-17T07:22:35;99593.81;;;19.20;59.93
63779;BME280;49923;55.970;37.516;2022-07-17T07:25:03;99585.84;;;19.09;61.02
63779;BME280;49923;55.970;37.516;2022-07-17T07:27:32;99587.47;;;19.23;60.51
63779;BME280;49923;55.970;37.516;2022-07-17T07:29:58;99581.56;;;19.08;59.23
63779;BME280;49923;55.970;37.516;2022-07-17T07:32:24;99581.19;;;19.48;61.21
63779;BME280;49923;55.970;37.516;2022-07-17T07:34:50;99586.13;;;19.63;60.52
63779;BME280;49923;55.970;37.516;2022-07-17T07:37:15;99584.03;;;18.99;55.52
63779;BME280;49923;55.970;37.516;2022-07-17T07:39:41;99594.44;;;19.24;57.27
63779;BME280;49923;55.970;37.516;2022-07-17T07:42:07;99595.63;;;19.55;58.05
63779;BME280;49923;55.970;37.516;2022-07-17T07:44:33;99588.88;;;19.62;53.84
63779;BME280;49923;55.970;37.516;2022-07-17T07:47:01;99573.53;;;19.89;58.68
63779;BME280;49923;55.970;37.516;2022-07-17T07:49:27;99574.25;;;20.14;56.57
63779;BME280;49923;55.970;37.516;2022-07-17T07:51:53;99556.81;;;20.22;53.82
63779;BME280;49923;55.970;37.516;2022-07-17T07:54:20;99564.19;;;20.62;55.92
63779;BME280;49923;55.970;37.516;2022-07-17T07:56:46;99572.41;;;20.79;54.98
63779;BME280;49923;55.970;37.516;2022-07-17T07:59:12;99568.09;;;20.24;49.59
63779;BME280;49923;55.970;37.516;2022-07-17T08:01:38;99572.34;;;19.93;50.31
63779;BME280;49923;55.970;37.516;2022-07-17T08:04:05;99567.16;;;20.36;53.83
63779;BME280;49923;55.970;37.516;2022-07-17T08:06:31;99569.66;;;20.81;50.86
63779;BME280;49923;55.970;37.516;2022-07-17T08:08:57;99574.69;;;20.52;49.16
63779;BME280;49923;55.970;37.516;2022-07-17T08:11:23;99580.06;;;20.73;49.42
63779;BME280;49923;55.970;37.516;2022-07-17T08:13:50;99580.34;;;21.11;51.33
63779;BME280;49923;55.970;37.516;2022-07-17T08:16:16;99585.06;;;21.08;50.07
63779;BME280;49923;55.970;37.516;2022-07-17T08:18:42;99584.31;;;21.17;48.22
63779;BME280;49923;55.970;37.516;2022-07-17T08:21:08;99590.50;;;20.74;46.37
63779;BME280;49923;55.970;37.516;2022-07-17T08:23:34;99594.81;;;20.75;46.58
63779;BME280;49923;55.970;37.516;2022-07-17T08:26:02;99601.91;;;21.59;50.25
63779;BME280;49923;55.970;37.516;2022-07-17T08:28:28;99596.31;;;21.83;49.70
63779;BME280;49923;55.970;37.516;2022-07-17T08:30:54;99597.19;;;21.93;45.93
63779;BME280;49923;55.970;37.516;2022-07-17T08:33:20;99588.91;;;21.56;43.82
63779;BME280;49923;55.970;37.516;2022-07-17T08:35:46;99597.94;;;21.95;48.04
63779;BME280;49923;55.970;37.516;2022-07-17T08:38:12;99602.75;;;22.21;47.73
63779;BME280;49923;55.970;37.516;2022-07-17T08:40:38;99596.03;;;22.07;43.63
63779;BME280;49923;55.970;37.516;2022-07-17T08:43:06;99602.25;;;22.76;45.78
63779;BME280;49923;55.970;37.516;2022-07-17T08:45:32;99596.09;;;22.76;45.81
63779;BME280;49923;55.970;37.516;2022-07-17T08:47:59;99600.16;;;23.18;47.83
63779;BME280;49923;55.970;37.516;2022-07-17T08:50:32;99598.88;;;23.22;43.21
63779;BME280;49923;55.970;37.516;2022-07-17T08:52:59;99600.16;;;23.94;46.34
63779;BME280;49923;55.970;37.516;2022-07-17T08:55:25;99599.31;;;23.18;44.63
63779;BME280;49923;55.970;37.516;2022-07-17T08:57:51;99595.09;;;22.67;43.09
63779;BME280;49923;55.970;37.516;2022-07-17T09:00:19;99600.72;;;23.12;46.04
63779;BME280;49923;55.970;37.516;2022-07-17T09:03:05;99611.38;;;21.83;42.58
63779;BME280;49923;55.970;37.516;2022-07-17T09:05:33;99615.97;;;21.81;42.86
63779;BME280;49923;55.970;37.516;2022-07-17T09:08:00;99614.69;;;21.75;48.11
63779;BME280;49923;55.970;37.516;2022-07-17T09:10:41;99617.63;;;20.88;40.50
63779;BME280;49923;55.970;37.516;2022-07-17T09:15:51;99631.72;;;20.88;44.23
63779;BME280;49923;55.970;37.516;2022-07-17T09:18:17;99641.09;;;20.38;44.43
63779;BME280;49923;55.970;37.516;2022-07-17T09:20:46;99641.78;;;20.29;46.52
63779;BME280;49923;55.970;37.516;2022-07-17T09:23:12;99645.28;;;20.07;45.92
63779;BME280;49923;55.970;37.516;2022-07-17T09:25:44;99646.59;;;19.90;46.07
63779;BME280;49923;55.970;37.516;2022-07-17T09:28:12;99652.16;;;19.52;49.57
63779;BME280;49923;55.970;37.516;2022-07-17T09:30:45;99656.06;;;19.12;52.89
63779;BME280;49923;55.970;37.516;2022-07-17T09:33:18;99668.41;;;18.88;55.63
63779;BME280;49923;55.970;37.516;2022-07-17T09:36:16;99678.53;;;18.57;60.13
63779;BME280;49923;55.970;37.516;2022-07-17T09:38:42;99650.31;;;18.21;64.45
63779;BME280;49923;55.970;37.516;2022-07-17T09:41:15;99639.38;;;18.02;67.10
63779;BME280;49923;55.970;37.516;2022-07-17T09:43:46;99631.00;;;17.57;65.98
63779;BME280;49923;55.970;37.516;2022-07-17T09:46:19;99624.84;;;17.71;63.02
63779;BME280;49923;55.970;37.516;2022-07-17T09:48:48;99622.31;;;18.44;61.34
63779;BME280;49923;55.970;37.516;2022-07-17T09:51:22;99629.72;;;18.26;63.27
63779;BME280;49923;55.970;37.516;2022-07-17T09:53:50;99622.84;;;17.87;63.39
63779;BME280;49923;55.970;37.516;2022-07-17T09:56:19;99611.44;;;17.99;59.20
63779;BME280;49923;55.970;37.516;2022-07-17T09:58:52;99616.78;;;18.23;57.87
63779;BME280;49923;55.970;37.516;2022-07-17T10:01:18;99612.00;;;18.77;57.41
63779;BME280;49923;55.970;37.516;2022-07-17T10:03:46;99615.38;;;19.14;58.86
63779;BME280;49923;55.970;37.516;2022-07-17T10:06:14;99610.75;;;19.75;56.67
63779;BME280;49923;55.970;37.516;2022-07-17T10:08:40;99603.69;;;19.76;55.54
63779;BME280;49923;55.970;37.516;2022-07-17T10:11:08;99606.81;;;19.92;53.04
63779;BME280;49923;55.970;37.516;2022-07-17T10:13:39;99594.63;;;20.56;54.66
63779;BME280;49923;55.970;37.516;2022-07-17T10:16:07;99611.69;;;21.06;56.73
63779;BME280;49923;55.970;37.516;2022-07-17T10:18:44;99610.19;;;21.24;59.08
63779;BME280;49923;55.970;37.516;2022-07-17T10:21:15;99608.91;;;21.91;56.00
63779;BME280;49923;55.970;37.516;2022-07-17T10:24:04;99609.41;;;22.05;51.86
63779;BME280;49923;55.970;37.516;2022-07-17T10:29:02;99606.31;;;20.85;51.91
63779;BME280;49923;55.970;37.516;2022-07-17T10:31:30;99617.19;;;21.14;52.32
63779;BME280;49923;55.970;37.516;2022-07-17T10:36:34;99615.41;;;21.56;54.09
63779;BME280;49923;55.970;37.516;2022-07-17T10:39:20;99614.75;;;21.85;54.82
63779;BME280;49923;55.970;37.516;2022-07-17T10:42:00;99612.25;;;21.93;58.62
63779;BME280;49923;55.970;37.516;2022-07-17T10:44:30;99608.56;;;21.95;57.37
63779;BME280;49923;55.970;37.516;2022-07-17T10:46:58;99611.69;;;22.50;55.92
63779;BME280;49923;55.970;37.516;2022-07-17T10:49:25;99601.78;;;22.62;50.54
63779;BME280;49923;55.970;37.516;2022-07-17T10:51:51;99611.75;;;22.79;52.99
63779;BME280;49923;55.970;37.516;2022-07-17T10:54:19;99606.53;;;22.09;45.91
63779;BME280;49923;55.970;37.516;2022-07-17T10:56:46;99608.97;;;22.31;49.87
63779;BME280;49923;55.970;37.516;2022-07-17T10:59:12;99604.19;;;22.74;51.16
63779;BME280;49923;55.970;37.516;2022-07-17T11:01:39;99608.25;;;22.78;49.87
63779;BME280;49923;55.970;37.516;2022-07-17T11:04:05;99620.19;;;22.44;52.58
63779;BME280;49923;55.970;37.516;2022-07-17T11:06:34;99613.63;;;22.58;51.93
63779;BME280;49923;55.970;37.516;2022-07-17T11:09:10;99609.94;;;22.89;52.23
63779;BME280;49923;55.970;37.516;2022-07-17T11:11:38;99601.97;;;22.99;50.78
63779;BME280;49923;55.970;37.516;2022-07-17T11:16:34;99589.63;;;23.46;48.43
63779;BME280;49923;55.970;37.516;2022-07-17T11:19:01;99585.63;;;22.84;49.71
63779;BME280;49923;55.970;37.516;2022-07-17T11:21:27;99590.94;;;22.94;49.15
63779;BME280;49923;55.970;37.516;2022-07-17T11:23:56;99583.47;;;22.49;43.39
63779;BME280;49923;55.970;37.516;2022-07-17T11:26:23;99594.50;;;22.64;44.01
63779;BME280;49923;55.970;37.516;2022-07-17T11:28:50;99584.97;;;22.42;42.72
63779;BME280;49923;55.970;37.516;2022-07-17T11:31:26;99594.72;;;23.01;44.74
63779;BME280;49923;55.970;37.516;2022-07-17T11:33:57;99592.69;;;23.70;47.48
63779;BME280;49923;55.970;37.516;2022-07-17T11:36:30;99589.34;;;23.39;47.11
63779;BME280;49923;55.970;37.516;2022-07-17T11:38:58;99588.25;;;23.61;43.80
63779;BME280;49923;55.970;37.516;2022-07-17T11:41:39;99584.63;;;23.23;42.15
63779;BME280;49923;55.970;37.516;2022-07-17T11:44:09;99586.38;;;22.46;42.06
63779;BME280;49923;55.970;37.516;2022-07-17T11:46:40;99574.53;;;23.37;43.77
63779;BME280;49923;55.970;37.516;2022-07-17T11:49:07;99564.53;;;22.73;41.74
63779;BME280;49923;55.970;37.516;2022-07-17T11:51:35;99569.91;;;23.39;47.50
63779;BME280;49923;55.970;37.516;2022-07-17T11:54:09;99565.22;;;23.13;41.01
63779;BME280;49923;55.970;37.516;2022-07-17T11:56:36;99562.00;;;23.00;43.93
63779;BME280;49923;55.970;37.516;2022-07-17T11:59:03;99570.69;;;24.15;49.18
63779;BME280;49923;55.970;37.516;2022-07-17T12:01:44;99562.97;;;24.39;42.23
63779;BME280;49923;55.970;37.516;2022-07-17T12:04:12;99562.38;;;24.90;43.96
63779;BME280;49923;55.970;37.516;2022-07-17T12:06:39;99562.03;;;25.11;48.41
63779;BME280;49923;55.970;37.516;2022-07-17T12:09:05;99560.31;;;25.02;44.22
63779;BME280;49923;55.970;37.516;2022-07-17T12:11:32;99553.47;;;24.99;45.94
63779;BME280;49923;55.970;37.516;2022-07-17T12:14:05;99564.38;;;24.43;39.79
63779;BME280;49923;55.970;37.516;2022-07-17T12:16:35;99578.03;;;24.30;44.41
63779;BME280;49923;55.970;37.516;2022-07-17T12:22:03;99563.56;;;23.68;38.79
63779;BME280;49923;55.970;37.516;2022-07-17T12:26:58;99550.78;;;24.64;41.88
63779;BME280;49923;55.970;37.516;2022-07-17T12:29:25;99551.38;;;24.75;43.59
63779;BME280;49923;55.970;37.516;2022-07-17T12:32:05;99551.63;;;24.82;38.96
63779;BME280;49923;55.970;37.516;2022-07-17T12:34:32;99560.03;;;24.15;42.15
63779;BME280;49923;55.970;37.516;2022-07-17T12:36:58;99554.75;;;24.95;45.95
63779;BME280;49923;55.970;37.516;2022-07-17T12:39:24;99560.81;;;23.51;37.07
63779;BME280;49923;55.970;37.516;2022-07-17T12:41:50;99555.22;;;24.28;45.07
63779;BME280;49923;55.970;37.516;2022-07-17T12:44:16;99556.97;;;25.00;42.93
63779;BME280;49923;55.970;37.516;2022-07-17T12:46:42;99542.47;;;24.49;38.49
63779;BME280;49923;55.970;37.516;2022-07-17T12:49:08;99544.31;;;24.66;37.89
63779;BME280;49923;55.970;37.516;2022-07-17T12:51:34;99540.47;;;24.51;44.83
63779;BME280;49923;55.970;37.516;2022-07-17T12:54:00;99550.25;;;23.78;41.33
63779;BME280;49923;55.970;37.516;2022-07-17T12:56:26;99543.81;;;23.05;36.00
63779;BME280;49923;55.970;37.516;2022-07-17T12:58:53;99537.81;;;22.74;38.10
63779;BME280;49923;55.970;37.516;2022-07-17T13:01:19;99549.66;;;22.70;40.75
63779;BME280;49923;55.970;37.516;2022-07-17T13:03:46;99549.25;;;22.56;38.95
63779;BME280;49923;55.970;37.516;2022-07-17T13:06:12;99546.47;;;22.76;41.10